SWA318 KSAN-KRNO
Flight info
| Callsign | SWA318 |
|---|---|
| Flight time | 1h 6m |
| Altitude | 32000 |
| Route | PADRZ2 EHF SHERF DNGLE1 |
| Aircraft | B38M/M-SDE1FGHILORVWXY/HB1 |
Departure
| Time | 2026-05-08 17:54 |
|---|---|
| Airport | San Diego International Airport (KSAN) |
Arrival
| Time | 2026-05-08 19:00 |
|---|---|
| Airport | Reno Tahoe International Airport (KRNO) |
| Time | Latitude | Longitude | Altitude | Speed | Heading |
|---|---|---|---|---|---|
| 2026-05-08 16:56 | 32.73251 | -117.20646 | 23 ft | 0 kts | 176° |
| 2026-05-08 17:33 | 32.73253 | -117.20646 | 23 ft | 2 kts | 176° |
| 2026-05-08 17:33 | 32.73279 | -117.20648 | 25 ft | 4 kts | 176° |
| 2026-05-08 17:34 | 32.73306 | -117.20650 | 25 ft | 4 kts | 176° |
| 2026-05-08 17:34 | 32.73333 | -117.20652 | 23 ft | 4 kts | 176° |
| 2026-05-08 17:34 | 32.73341 | -117.20652 | 23 ft | 1 kts | 176° |
| 2026-05-08 17:40 | 32.73337 | -117.20651 | 23 ft | 2 kts | 164° |
| 2026-05-08 17:41 | 32.73326 | -117.20621 | 25 ft | 5 kts | 89° |
| 2026-05-08 17:41 | 32.73338 | -117.20585 | 26 ft | 5 kts | 53° |
| 2026-05-08 17:41 | 32.73375 | -117.20560 | 28 ft | 8 kts | 13° |
| 2026-05-08 17:41 | 32.73408 | -117.20556 | 23 ft | 6 kts | 2° |
| 2026-05-08 17:42 | 32.73464 | -117.20551 | 21 ft | 10 kts | 14° |
| 2026-05-08 17:42 | 32.73529 | -117.20490 | 20 ft | 14 kts | 47° |
| 2026-05-08 17:42 | 32.73586 | -117.20398 | 20 ft | 13 kts | 75° |
| 2026-05-08 17:42 | 32.73577 | -117.20296 | 26 ft | 12 kts | 104° |
| 2026-05-08 17:43 | 32.73554 | -117.20201 | 26 ft | 12 kts | 106° |
| 2026-05-08 17:43 | 32.73528 | -117.20099 | 26 ft | 14 kts | 107° |
| 2026-05-08 17:43 | 32.73500 | -117.19980 | 27 ft | 16 kts | 107° |
| 2026-05-08 17:43 | 32.73469 | -117.19853 | 27 ft | 16 kts | 106° |
| 2026-05-08 17:44 | 32.73435 | -117.19713 | 27 ft | 19 kts | 106° |
| 2026-05-08 17:44 | 32.73411 | -117.19611 | 28 ft | 20 kts | 106° |
| 2026-05-08 17:44 | 32.73370 | -117.19449 | 27 ft | 21 kts | 107° |
| 2026-05-08 17:44 | 32.73326 | -117.19265 | 23 ft | 25 kts | 106° |
| 2026-05-08 17:45 | 32.73278 | -117.19068 | 25 ft | 25 kts | 106° |
| 2026-05-08 17:45 | 32.73230 | -117.18867 | 29 ft | 26 kts | 106° |
| 2026-05-08 17:45 | 32.73180 | -117.18661 | 30 ft | 26 kts | 106° |
| 2026-05-08 17:45 | 32.73126 | -117.18439 | 29 ft | 29 kts | 106° |
| 2026-05-08 17:46 | 32.73070 | -117.18206 | 27 ft | 29 kts | 106° |
| 2026-05-08 17:46 | 32.73025 | -117.18024 | 22 ft | 19 kts | 105° |
| 2026-05-08 17:46 | 32.72987 | -117.17864 | 19 ft | 20 kts | 106° |
| 2026-05-08 17:46 | 32.72957 | -117.17738 | 18 ft | 11 kts | 105° |
| 2026-05-08 17:47 | 32.72952 | -117.17680 | 20 ft | 4 kts | 82° |
| 2026-05-08 17:47 | 32.72953 | -117.17677 | 20 ft | 0 kts | 81° |
| 2026-05-08 17:48 | 32.72953 | -117.17675 | 20 ft | 2 kts | 79° |
| 2026-05-08 17:49 | 32.72964 | -117.17625 | 22 ft | 8 kts | 73° |
| 2026-05-08 17:49 | 32.72995 | -117.17572 | 27 ft | 8 kts | 34° |
| 2026-05-08 17:49 | 32.73024 | -117.17577 | 24 ft | 2 kts | 291° |
| 2026-05-08 17:49 | 32.73028 | -117.17603 | 24 ft | 0 kts | 283° |
| 2026-05-08 17:53 | 32.73028 | -117.17604 | 24 ft | 0 kts | 283° |
| 2026-05-08 17:53 | 32.73047 | -117.17689 | 23 ft | 45 kts | 286° |
| 2026-05-08 17:53 | 32.73214 | -117.18381 | 27 ft | 126 kts | 286° |
| 2026-05-08 17:53 | 32.73516 | -117.19627 | 71 ft | 182 kts | 286° |
| 2026-05-08 17:54 | 32.73883 | -117.21064 | 855 ft | 186 kts | 285° |
| 2026-05-08 17:54 | 32.74266 | -117.22508 | 1874 ft | 182 kts | 291° |
| 2026-05-08 17:54 | 32.74876 | -117.23926 | 2391 ft | 208 kts | 305° |
| 2026-05-08 17:54 | 32.75817 | -117.25364 | 3028 ft | 230 kts | 309° |
| 2026-05-08 17:55 | 32.76813 | -117.26891 | 3929 ft | 239 kts | 307° |
| 2026-05-08 17:55 | 32.77799 | -117.28512 | 4927 ft | 245 kts | 306° |
| 2026-05-08 17:55 | 32.78822 | -117.30208 | 5781 ft | 256 kts | 306° |
| 2026-05-08 17:55 | 32.79939 | -117.31934 | 6635 ft | 265 kts | 308° |
| 2026-05-08 17:56 | 32.81096 | -117.33663 | 7561 ft | 271 kts | 308° |
| 2026-05-08 17:56 | 32.82281 | -117.35459 | 8358 ft | 280 kts | 307° |
| 2026-05-08 17:56 | 32.83487 | -117.37308 | 9270 ft | 286 kts | 307° |
| 2026-05-08 17:56 | 32.84719 | -117.39206 | 10107 ft | 294 kts | 307° |
| 2026-05-08 17:57 | 32.86001 | -117.41192 | 10668 ft | 311 kts | 307° |
| 2026-05-08 17:57 | 32.87363 | -117.43305 | 11088 ft | 331 kts | 307° |
| 2026-05-08 17:57 | 32.88805 | -117.45549 | 11453 ft | 351 kts | 308° |
| 2026-05-08 17:57 | 32.90324 | -117.47913 | 11819 ft | 368 kts | 308° |
| 2026-05-08 17:58 | 32.91885 | -117.50345 | 12313 ft | 378 kts | 308° |
| 2026-05-08 17:58 | 32.93489 | -117.52843 | 13051 ft | 381 kts | 308° |
| 2026-05-08 17:58 | 32.95108 | -117.55366 | 13716 ft | 386 kts | 308° |
| 2026-05-08 17:58 | 32.96731 | -117.57896 | 14329 ft | 390 kts | 308° |
| 2026-05-08 17:59 | 32.98403 | -117.60506 | 14782 ft | 395 kts | 308° |
| 2026-05-08 17:59 | 33.00068 | -117.63105 | 14925 ft | 394 kts | 308° |
| 2026-05-08 17:59 | 33.01729 | -117.65701 | 14967 ft | 394 kts | 308° |
| 2026-05-08 17:59 | 33.03394 | -117.68303 | 15170 ft | 396 kts | 308° |
| 2026-05-08 18:00 | 33.05061 | -117.70911 | 15856 ft | 396 kts | 308° |
| 2026-05-08 18:00 | 33.08976 | -117.75563 | 16976 ft | 402 kts | 320° |
| 2026-05-08 18:00 | 33.11103 | -117.77747 | 17520 ft | 405 kts | 320° |
| 2026-05-08 18:01 | 33.13252 | -117.79940 | 18078 ft | 408 kts | 320° |
| 2026-05-08 18:01 | 33.15418 | -117.82148 | 18575 ft | 411 kts | 320° |
| 2026-05-08 18:01 | 33.17606 | -117.84369 | 19048 ft | 414 kts | 322° |
| 2026-05-08 18:01 | 33.20066 | -117.86129 | 19497 ft | 414 kts | 339° |
| 2026-05-08 18:02 | 33.22814 | -117.87203 | 19958 ft | 417 kts | 343° |
| 2026-05-08 18:02 | 33.24658 | -117.87867 | 20236 ft | 419 kts | 344° |
| 2026-05-08 18:02 | 33.28426 | -117.89177 | 20861 ft | 423 kts | 344° |
| 2026-05-08 18:02 | 33.31264 | -117.90140 | 21309 ft | 426 kts | 345° |
| 2026-05-08 18:03 | 33.34127 | -117.91102 | 21769 ft | 428 kts | 345° |
| 2026-05-08 18:03 | 33.37007 | -117.92065 | 22213 ft | 431 kts | 345° |
| 2026-05-08 18:03 | 33.39867 | -117.93021 | 22649 ft | 434 kts | 345° |
| 2026-05-08 18:03 | 33.42786 | -117.93997 | 23098 ft | 436 kts | 345° |
| 2026-05-08 18:04 | 33.45747 | -117.94988 | 23622 ft | 437 kts | 344° |
| 2026-05-08 18:04 | 33.48690 | -117.95972 | 23928 ft | 441 kts | 344° |
| 2026-05-08 18:04 | 33.51655 | -117.96966 | 24306 ft | 443 kts | 344° |
| 2026-05-08 18:04 | 33.54590 | -117.97950 | 24687 ft | 445 kts | 344° |
| 2026-05-08 18:05 | 33.57583 | -117.98953 | 25031 ft | 448 kts | 344° |
| 2026-05-08 18:05 | 33.60597 | -117.99965 | 25407 ft | 451 kts | 344° |
| 2026-05-08 18:05 | 33.63629 | -118.00984 | 25757 ft | 453 kts | 344° |
| 2026-05-08 18:05 | 33.66674 | -118.02008 | 26095 ft | 455 kts | 344° |
| 2026-05-08 18:06 | 33.69733 | -118.03037 | 26469 ft | 457 kts | 344° |
| 2026-05-08 18:06 | 33.72801 | -118.04070 | 26818 ft | 459 kts | 344° |
| 2026-05-08 18:06 | 33.75886 | -118.05109 | 27108 ft | 462 kts | 344° |
| 2026-05-08 18:06 | 33.78989 | -118.06156 | 27454 ft | 464 kts | 344° |
| 2026-05-08 18:07 | 33.82101 | -118.07205 | 27758 ft | 466 kts | 344° |
| 2026-05-08 18:07 | 33.85226 | -118.08261 | 28017 ft | 470 kts | 344° |
| 2026-05-08 18:07 | 33.88381 | -118.09327 | 28406 ft | 471 kts | 344° |
| 2026-05-08 18:07 | 33.91540 | -118.10396 | 28714 ft | 474 kts | 344° |
| 2026-05-08 18:08 | 33.94724 | -118.11473 | 29074 ft | 475 kts | 344° |
| 2026-05-08 18:08 | 33.97906 | -118.12551 | 29492 ft | 474 kts | 343° |
| 2026-05-08 18:08 | 34.01082 | -118.13628 | 29942 ft | 473 kts | 343° |
| 2026-05-08 18:08 | 34.04246 | -118.14702 | 30345 ft | 472 kts | 343° |
| 2026-05-08 18:09 | 34.07407 | -118.15775 | 30726 ft | 471 kts | 343° |
| 2026-05-08 18:09 | 34.10557 | -118.16845 | 31133 ft | 469 kts | 343° |
| 2026-05-08 18:09 | 34.13693 | -118.17912 | 31527 ft | 467 kts | 343° |
| 2026-05-08 18:09 | 34.16778 | -118.18961 | 31901 ft | 466 kts | 343° |
| 2026-05-08 18:10 | 34.19904 | -118.20026 | 32079 ft | 466 kts | 343° |
| 2026-05-08 18:10 | 34.23019 | -118.21088 | 32091 ft | 464 kts | 343° |
| 2026-05-08 18:10 | 34.29219 | -118.23204 | 32094 ft | 462 kts | 343° |
| 2026-05-08 18:11 | 34.35411 | -118.25320 | 32080 ft | 462 kts | 343° |
| 2026-05-08 18:11 | 34.41207 | -118.27304 | 32077 ft | 463 kts | 343° |
| 2026-05-08 18:12 | 34.47408 | -118.29429 | 32037 ft | 462 kts | 343° |
| 2026-05-08 18:12 | 34.53594 | -118.31553 | 32046 ft | 461 kts | 343° |
| 2026-05-08 18:13 | 34.59768 | -118.33676 | 32044 ft | 461 kts | 343° |
| 2026-05-08 18:13 | 34.65936 | -118.35800 | 32057 ft | 461 kts | 343° |
| 2026-05-08 18:14 | 34.72067 | -118.37914 | 32054 ft | 459 kts | 343° |
| 2026-05-08 18:14 | 34.78210 | -118.40037 | 32058 ft | 460 kts | 343° |
| 2026-05-08 18:15 | 34.84370 | -118.42168 | 32045 ft | 459 kts | 343° |
| 2026-05-08 18:15 | 34.90522 | -118.44299 | 32126 ft | 460 kts | 343° |
| 2026-05-08 18:16 | 34.96635 | -118.46422 | 32154 ft | 459 kts | 343° |
| 2026-05-08 18:16 | 35.02777 | -118.48556 | 32187 ft | 460 kts | 343° |
| 2026-05-08 18:17 | 35.08942 | -118.50703 | 32204 ft | 459 kts | 343° |
| 2026-05-08 18:17 | 35.15080 | -118.52843 | 32202 ft | 457 kts | 343° |
| 2026-05-08 18:18 | 35.18135 | -118.53909 | 32057 ft | 457 kts | 343° |
| 2026-05-08 18:18 | 35.21199 | -118.54980 | 32062 ft | 457 kts | 343° |
| 2026-05-08 18:18 | 35.27321 | -118.57122 | 32081 ft | 457 kts | 343° |
| 2026-05-08 18:19 | 35.33390 | -118.59246 | 32070 ft | 457 kts | 343° |
| 2026-05-08 18:19 | 35.39522 | -118.61400 | 32075 ft | 458 kts | 343° |
| 2026-05-08 18:20 | 35.45654 | -118.63554 | 32077 ft | 458 kts | 343° |
| 2026-05-08 18:20 | 35.51787 | -118.65713 | 32093 ft | 458 kts | 343° |
| 2026-05-08 18:21 | 35.57927 | -118.67878 | 32075 ft | 460 kts | 343° |
| 2026-05-08 18:21 | 35.64081 | -118.70051 | 32080 ft | 459 kts | 343° |
| 2026-05-08 18:22 | 35.70192 | -118.72212 | 32086 ft | 459 kts | 343° |
| 2026-05-08 18:22 | 35.76329 | -118.74387 | 32094 ft | 458 kts | 343° |
| 2026-05-08 18:23 | 35.82457 | -118.76561 | 32095 ft | 457 kts | 343° |
| 2026-05-08 18:23 | 35.88573 | -118.78734 | 32099 ft | 458 kts | 342° |
| 2026-05-08 18:24 | 35.94700 | -118.80915 | 32100 ft | 458 kts | 343° |
| 2026-05-08 18:24 | 36.00822 | -118.83098 | 32097 ft | 458 kts | 343° |
| 2026-05-08 18:25 | 36.06957 | -118.85289 | 32095 ft | 458 kts | 343° |
| 2026-05-08 18:25 | 36.13077 | -118.87479 | 32093 ft | 458 kts | 343° |
| 2026-05-08 18:26 | 36.19157 | -118.89657 | 32095 ft | 457 kts | 343° |
| 2026-05-08 18:26 | 36.25270 | -118.91850 | 32085 ft | 457 kts | 343° |
| 2026-05-08 18:27 | 36.29316 | -118.93304 | 32084 ft | 457 kts | 342° |
| 2026-05-08 18:27 | 36.37475 | -118.96241 | 32071 ft | 454 kts | 343° |
| 2026-05-08 18:28 | 36.43539 | -118.98428 | 32089 ft | 454 kts | 343° |
| 2026-05-08 18:28 | 36.49560 | -119.00602 | 32084 ft | 454 kts | 343° |
| 2026-05-08 18:29 | 36.55620 | -119.02796 | 32078 ft | 453 kts | 343° |
| 2026-05-08 18:29 | 36.61672 | -119.04988 | 32080 ft | 453 kts | 343° |
| 2026-05-08 18:30 | 36.67720 | -119.07184 | 32073 ft | 453 kts | 343° |
| 2026-05-08 18:30 | 36.73772 | -119.09384 | 32087 ft | 452 kts | 342° |
| 2026-05-08 18:31 | 36.78789 | -119.11211 | 32080 ft | 452 kts | 342° |
| 2026-05-08 18:31 | 36.84820 | -119.13410 | 32077 ft | 452 kts | 343° |
| 2026-05-08 18:32 | 36.90857 | -119.15615 | 32079 ft | 452 kts | 342° |
| 2026-05-08 18:32 | 36.96891 | -119.17823 | 32075 ft | 452 kts | 342° |
| 2026-05-08 18:33 | 37.02929 | -119.20036 | 32080 ft | 452 kts | 342° |
| 2026-05-08 18:33 | 37.08968 | -119.22252 | 32083 ft | 452 kts | 342° |
| 2026-05-08 18:34 | 37.15001 | -119.24470 | 32087 ft | 451 kts | 342° |
| 2026-05-08 18:34 | 37.20979 | -119.26671 | 32076 ft | 450 kts | 342° |
| 2026-05-08 18:35 | 37.26991 | -119.28888 | 32092 ft | 450 kts | 342° |
| 2026-05-08 18:35 | 37.33005 | -119.31109 | 32090 ft | 450 kts | 342° |
| 2026-05-08 18:36 | 37.39019 | -119.33337 | 32084 ft | 450 kts | 342° |
| 2026-05-08 18:36 | 37.45028 | -119.35558 | 32095 ft | 450 kts | 343° |
| 2026-05-08 18:37 | 37.48116 | -119.36193 | 32102 ft | 451 kts | 354° |
| 2026-05-08 18:37 | 37.51241 | -119.36551 | 32080 ft | 452 kts | 352° |
| 2026-05-08 18:37 | 37.57505 | -119.37332 | 32101 ft | 452 kts | 353° |
| 2026-05-08 18:38 | 37.63779 | -119.38091 | 32101 ft | 452 kts | 353° |
| 2026-05-08 18:38 | 37.70009 | -119.38845 | 32110 ft | 453 kts | 353° |
| 2026-05-08 18:39 | 37.76287 | -119.39606 | 32129 ft | 453 kts | 353° |
| 2026-05-08 18:39 | 37.82569 | -119.40368 | 32106 ft | 453 kts | 353° |
| 2026-05-08 18:40 | 37.88856 | -119.41132 | 32103 ft | 453 kts | 353° |
| 2026-05-08 18:40 | 37.95096 | -119.41892 | 32088 ft | 453 kts | 352° |
| 2026-05-08 18:41 | 37.98228 | -119.42274 | 31313 ft | 452 kts | 352° |
| 2026-05-08 18:41 | 38.01374 | -119.42658 | 30423 ft | 455 kts | 352° |
| 2026-05-08 18:41 | 38.04537 | -119.43045 | 29425 ft | 458 kts | 352° |
| 2026-05-08 18:41 | 38.07718 | -119.43434 | 28395 ft | 461 kts | 352° |
| 2026-05-08 18:42 | 38.10918 | -119.43825 | 27510 ft | 461 kts | 352° |
| 2026-05-08 18:42 | 38.14079 | -119.44212 | 26854 ft | 457 kts | 352° |
| 2026-05-08 18:42 | 38.17230 | -119.44603 | 26141 ft | 455 kts | 352° |
| 2026-05-08 18:42 | 38.20395 | -119.45026 | 25728 ft | 464 kts | 352° |
| 2026-05-08 18:43 | 38.23622 | -119.45457 | 25460 ft | 468 kts | 352° |
| 2026-05-08 18:43 | 38.26863 | -119.45890 | 25162 ft | 469 kts | 352° |
| 2026-05-08 18:43 | 38.30110 | -119.46326 | 24830 ft | 468 kts | 352° |
| 2026-05-08 18:43 | 38.33347 | -119.46759 | 24503 ft | 467 kts | 352° |
| 2026-05-08 18:44 | 38.36530 | -119.47185 | 24167 ft | 465 kts | 352° |
| 2026-05-08 18:44 | 38.39749 | -119.47617 | 23838 ft | 464 kts | 352° |
| 2026-05-08 18:44 | 38.42949 | -119.48047 | 23492 ft | 462 kts | 352° |
| 2026-05-08 18:44 | 38.46141 | -119.48476 | 23148 ft | 460 kts | 352° |
| 2026-05-08 18:45 | 38.49315 | -119.48903 | 22819 ft | 458 kts | 352° |
| 2026-05-08 18:45 | 38.52476 | -119.49328 | 22490 ft | 456 kts | 352° |
| 2026-05-08 18:45 | 38.55624 | -119.49752 | 22178 ft | 454 kts | 352° |
| 2026-05-08 18:45 | 38.58757 | -119.50175 | 21855 ft | 452 kts | 352° |
| 2026-05-08 18:46 | 38.61885 | -119.50597 | 21541 ft | 450 kts | 352° |
| 2026-05-08 18:46 | 38.65001 | -119.51019 | 21164 ft | 448 kts | 352° |
| 2026-05-08 18:46 | 38.68091 | -119.51439 | 20868 ft | 447 kts | 351° |
| 2026-05-08 18:46 | 38.71182 | -119.51858 | 20573 ft | 445 kts | 351° |
| 2026-05-08 18:47 | 38.74219 | -119.52271 | 20278 ft | 443 kts | 352° |
| 2026-05-08 18:47 | 38.77285 | -119.52688 | 19980 ft | 441 kts | 351° |
| 2026-05-08 18:47 | 38.80286 | -119.53096 | 19692 ft | 429 kts | 351° |
| 2026-05-08 18:47 | 38.83218 | -119.53495 | 19418 ft | 418 kts | 351° |
| 2026-05-08 18:48 | 38.86077 | -119.53885 | 19133 ft | 409 kts | 351° |
| 2026-05-08 18:48 | 38.88871 | -119.54266 | 18884 ft | 399 kts | 351° |
| 2026-05-08 18:48 | 38.91612 | -119.54641 | 18610 ft | 392 kts | 351° |
| 2026-05-08 18:48 | 38.94305 | -119.55008 | 18316 ft | 385 kts | 351° |
| 2026-05-08 18:49 | 38.96961 | -119.55375 | 17706 ft | 386 kts | 351° |
| 2026-05-08 18:49 | 38.99625 | -119.55744 | 17270 ft | 382 kts | 351° |
| 2026-05-08 18:49 | 39.02222 | -119.56103 | 16880 ft | 378 kts | 351° |
| 2026-05-08 18:49 | 39.04863 | -119.56469 | 16471 ft | 374 kts | 351° |
| 2026-05-08 18:50 | 39.07405 | -119.56821 | 16095 ft | 371 kts | 351° |
| 2026-05-08 18:50 | 39.09946 | -119.57174 | 15700 ft | 362 kts | 351° |
| 2026-05-08 18:50 | 39.12398 | -119.57515 | 15327 ft | 348 kts | 351° |
| 2026-05-08 18:50 | 39.14760 | -119.57843 | 14985 ft | 336 kts | 351° |
| 2026-05-08 18:51 | 39.17043 | -119.58160 | 14662 ft | 323 kts | 351° |
| 2026-05-08 18:51 | 39.19239 | -119.58465 | 14315 ft | 313 kts | 351° |
| 2026-05-08 18:51 | 39.21396 | -119.58767 | 13936 ft | 311 kts | 351° |
| 2026-05-08 18:51 | 39.23549 | -119.59067 | 13567 ft | 310 kts | 351° |
| 2026-05-08 18:52 | 39.25688 | -119.59375 | 13160 ft | 308 kts | 349° |
| 2026-05-08 18:52 | 39.27818 | -119.59776 | 12697 ft | 311 kts | 351° |
| 2026-05-08 18:52 | 39.29996 | -119.60041 | 12101 ft | 318 kts | 353° |
| 2026-05-08 18:52 | 39.32220 | -119.60317 | 11554 ft | 323 kts | 352° |
| 2026-05-08 18:53 | 39.34460 | -119.60609 | 11113 ft | 323 kts | 352° |
| 2026-05-08 18:53 | 39.36692 | -119.60908 | 10760 ft | 319 kts | 351° |
| 2026-05-08 18:53 | 39.38853 | -119.61208 | 10574 ft | 302 kts | 351° |
| 2026-05-08 18:53 | 39.40874 | -119.61489 | 10485 ft | 283 kts | 351° |
| 2026-05-08 18:54 | 39.42770 | -119.61753 | 10406 ft | 265 kts | 351° |
| 2026-05-08 18:54 | 39.44562 | -119.62005 | 10231 ft | 253 kts | 351° |
| 2026-05-08 18:54 | 39.46243 | -119.62241 | 10073 ft | 239 kts | 351° |
| 2026-05-08 18:54 | 39.47864 | -119.62484 | 9800 ft | 229 kts | 349° |
| 2026-05-08 18:55 | 39.50889 | -119.63063 | 9323 ft | 212 kts | 349° |
| 2026-05-08 18:55 | 39.52353 | -119.63338 | 9033 ft | 213 kts | 349° |
| 2026-05-08 18:55 | 39.53818 | -119.63613 | 8719 ft | 211 kts | 349° |
| 2026-05-08 18:56 | 39.55264 | -119.63880 | 8429 ft | 209 kts | 349° |
| 2026-05-08 18:56 | 39.56704 | -119.64153 | 8115 ft | 209 kts | 350° |
| 2026-05-08 18:56 | 39.58118 | -119.64585 | 7807 ft | 208 kts | 338° |
| 2026-05-08 18:56 | 39.59398 | -119.65439 | 7479 ft | 207 kts | 322° |
| 2026-05-08 18:57 | 39.60400 | -119.66758 | 7191 ft | 205 kts | 304° |
| 2026-05-08 18:57 | 39.60864 | -119.67821 | 6981 ft | 205 kts | 292° |
| 2026-05-08 18:57 | 39.61279 | -119.70184 | 6613 ft | 203 kts | 270° |
| 2026-05-08 18:57 | 39.61130 | -119.71946 | 6448 ft | 189 kts | 256° |
| 2026-05-08 18:58 | 39.60661 | -119.73489 | 6422 ft | 182 kts | 241° |
| 2026-05-08 18:58 | 39.59913 | -119.74808 | 6458 ft | 183 kts | 226° |
| 2026-05-08 18:58 | 39.58895 | -119.75819 | 6251 ft | 192 kts | 208° |
| 2026-05-08 18:58 | 39.57661 | -119.76434 | 6071 ft | 186 kts | 194° |
| 2026-05-08 18:59 | 39.56437 | -119.76603 | 5865 ft | 168 kts | 182° |
| 2026-05-08 18:59 | 39.55338 | -119.76648 | 5666 ft | 150 kts | 181° |
| 2026-05-08 18:59 | 39.54287 | -119.76628 | 5328 ft | 153 kts | 180° |
| 2026-05-08 18:59 | 39.53176 | -119.76657 | 5023 ft | 163 kts | 181° |
| 2026-05-08 19:00 | 39.52058 | -119.76678 | 4754 ft | 158 kts | 181° |
| 2026-05-08 19:00 | 39.50976 | -119.76680 | 4544 ft | 148 kts | 182° |
| 2026-05-08 19:00 | 39.50178 | -119.76677 | 4538 ft | 78 kts | 180° |
| 2026-05-08 19:00 | 39.49826 | -119.76679 | 4540 ft | 26 kts | 181° |
| 2026-05-08 19:01 | 39.49745 | -119.76714 | 4543 ft | 10 kts | 245° |
| 2026-05-08 19:01 | 39.49735 | -119.76803 | 4524 ft | 11 kts | 268° |
| 2026-05-08 19:01 | 39.49736 | -119.76911 | 4525 ft | 13 kts | 271° |
| 2026-05-08 19:01 | 39.49736 | -119.77035 | 4523 ft | 15 kts | 268° |
| 2026-05-08 19:02 | 39.49752 | -119.77137 | 4524 ft | 10 kts | 323° |
| 2026-05-08 19:02 | 39.49820 | -119.77153 | 4523 ft | 10 kts | 359° |
| 2026-05-08 19:02 | 39.49907 | -119.77154 | 4523 ft | 16 kts | 0° |
| 2026-05-08 19:02 | 39.50049 | -119.77153 | 4523 ft | 23 kts | 360° |
| 2026-05-08 19:03 | 39.50187 | -119.77152 | 4525 ft | 14 kts | 0° |
| 2026-05-08 19:03 | 39.50284 | -119.77151 | 4526 ft | 14 kts | 0° |
| 2026-05-08 19:03 | 39.50388 | -119.77152 | 4525 ft | 15 kts | 360° |
| 2026-05-08 19:03 | 39.50490 | -119.77151 | 4525 ft | 15 kts | 0° |
| 2026-05-08 19:04 | 39.50564 | -119.77156 | 4524 ft | 9 kts | 340° |
| 2026-05-08 19:04 | 39.50587 | -119.77195 | 4524 ft | 0 kts | 288° |
| 2026-05-08 19:04 | 39.50588 | -119.77198 | 4524 ft | 0 kts | 287° |
| 2026-05-08 19:04 | 39.50588 | -119.77199 | 4524 ft | 1 kts | 285° |
| 2026-05-08 19:05 | 39.50589 | -119.77242 | 4525 ft | 8 kts | 269° |
| 2026-05-08 19:05 | 39.50588 | -119.77319 | 4526 ft | 9 kts | 269° |
| 2026-05-08 19:05 | 39.50583 | -119.77366 | 4526 ft | 2 kts | 232° |
| 2026-05-08 19:05 | 39.50571 | -119.77372 | 4526 ft | 2 kts | 195° |
| 2026-05-08 19:06 | 39.50550 | -119.77375 | 4526 ft | 4 kts | 184° |
| 2026-05-08 19:06 | 39.50528 | -119.77376 | 4525 ft | 2 kts | 181° |
| 2026-05-08 19:06 | 39.50525 | -119.77376 | 4525 ft | 0 kts | 181° |